Time;durP1;ratioP1;P1;durP2;ratioP2;P2;SDS_P1;SDS_P2;PMS_P1;PMS_P2;Temp;Humidity;BMP_temperature;BMP_pressure;BME280_temperature;BME280_humidity;BME280_pressure;Samples;Min_cycle;Max_cycle;Signal;HPM_P1;HPM_P2
2024/02/07 09:29:25;;;;;;;0.63;0.40;;;;;;;;;;5024274;27;100956;-59
2024/02/07 09:31:50;;;;;;;0.63;0.43;;;;;;;;;;5017064;27;100529;-48
2024/02/07 09:34:15;;;;;;;0.07;0.07;;;;;;;;;;5012850;27;100692;-38
2024/02/07 09:37:44;;;;;;;0.25;0.17;;;;;;;;;;5025874;27;80336;-40
2024/02/07 09:40:10;;;;;;;1.20;0.60;;;;;;;;;;5010912;28;81076;-39
2024/02/07 09:42:38;;;;;;;0.00;0.00;;;;;;;;;;5004556;28;81035;-38
2024/02/07 09:45:05;;;;;;;0.00;0.00;;;;;;;;;;5017643;28;81079;-42
2024/02/07 09:47:31;;;;;;;0.00;0.00;;;;;;;;;;5005985;27;82313;-43
2024/02/07 09:49:57;;;;;;;0.13;0.13;;;;;;;;;;5011773;28;80937;-43
2024/02/07 09:52:23;;;;;;;0.00;0.00;;;;;;;;;;5010056;28;82807;-41
2024/02/07 09:54:51;;;;;;;0.70;0.30;;;;;;;;;;5009134;28;84698;-40
2024/02/07 09:57:17;;;;;;;0.00;0.00;;;;;;;;;;5013954;27;80366;-42
2024/02/07 09:59:43;;;;;;;0.40;0.30;;;;;;;;;;5006198;28;81768;-42
2024/02/07 10:02:11;;;;;;;0.00;0.00;;;;;;;;;;5007939;28;81171;-46
2024/02/07 10:04:37;;;;;;;0.00;0.00;;;;;;;;;;5008257;28;81491;-45
2024/02/07 10:07:07;;;;;;;0.00;0.00;;;;;;;;;;5009432;28;80505;-44
2024/02/07 10:09:32;;;;;;;0.00;0.00;;;;;;;;;;5009453;28;82802;-42
2024/02/07 10:12:00;;;;;;;0.00;0.00;;;;;;;;;;5011582;28;81556;-43
2024/02/07 10:14:25;;;;;;;0.60;0.00;;;;;;;;;;5006382;28;81053;-45
2024/02/07 10:16:51;;;;;;;0.00;0.00;;;;;;;;;;5007803;28;81395;-45
2024/02/07 10:19:16;;;;;;;0.30;0.30;;;;;;;;;;5008774;28;81041;-44
2024/02/07 10:21:41;;;;;;;0.20;0.20;;;;;;;;;;5007598;28;80961;-46
2024/02/07 10:24:06;;;;;;;1.00;0.20;;;;;;;;;;5013215;28;81230;-45
2024/02/07 10:26:32;;;;;;;2.20;0.50;;;;;;;;;;5004929;27;80678;-44
2024/02/07 10:29:01;;;;;;;0.80;0.17;;;;;;;;;;5008478;28;81991;-42
2024/02/07 10:31:26;;;;;;;4.87;0.63;;;;;;;;;;5011137;27;80964;-44
2024/02/07 10:33:52;;;;;;;0.00;0.00;;;;;;;;;;5007193;28;82078;-43
2024/02/07 10:36:21;;;;;;;0.10;0.10;;;;;;;;;;5009450;28;80835;-44
2024/02/07 10:38:46;;;;;;;0.30;0.30;;;;;;;;;;5004504;28;81485;-46
2024/02/07 10:41:11;;;;;;;0.10;0.10;;;;;;;;;;5012195;27;81533;-44
2024/02/07 10:43:36;;;;;;;0.00;0.00;;;;;;;;;;5006651;28;80762;-45
2024/02/07 10:46:12;;;;;;;0.20;0.20;;;;;;;;;;5013141;28;81463;-42
2024/02/07 10:48:38;;;;;;;0.50;0.50;;;;;;;;;;4990452;27;81889;-37
2024/02/07 10:51:04;;;;;;;0.25;0.20;;;;;;;;;;4997294;28;81609;-37
2024/02/07 10:53:29;;;;;;;0.20;0.20;;;;;;;;;;4996194;28;82247;-38
2024/02/07 10:55:58;;;;;;;0.20;0.10;;;;;;;;;;4996423;28;81639;-40
2024/02/07 10:58:25;;;;;;;0.40;0.20;;;;;;;;;;4995557;28;82775;-41
2024/02/07 11:00:54;;;;;;;3.60;0.20;;;;;;;;;;4989268;28;81075;-37
2024/02/07 11:03:20;;;;;;;0.10;0.10;;;;;;;;;;4997615;28;80961;-36
2024/02/07 11:05:46;;;;;;;0.30;0.05;;;;;;;;;;4996642;28;81090;-50
2024/02/07 11:08:11;;;;;;;0.80;0.10;;;;;;;;;;5000367;28;81697;-47
2024/02/07 11:10:37;;;;;;;0.67;0.37;;;;;;;;;;4988332;28;80982;-42
2024/02/07 11:13:03;;;;;;;0.10;0.10;;;;;;;;;;4998135;28;81908;-44
2024/02/07 11:15:28;;;;;;;0.00;0.00;;;;;;;;;;4985847;28;81536;-46
2024/02/07 11:17:53;;;;;;;1.00;0.60;;;;;;;;;;4997196;28;81029;-50
2024/02/07 11:20:19;;;;;;;1.63;0.43;;;;;;;;;;4995426;28;82291;-46
2024/02/07 11:22:47;;;;;;;0.90;0.40;;;;;;;;;;4990786;28;82008;-40
2024/02/07 11:25:14;;;;;;;0.03;0.03;;;;;;;;;;4999041;28;81917;-42
2024/02/07 11:27:40;;;;;;;0.03;0.03;;;;;;;;;;4992570;28;81012;-44
2024/02/07 11:30:09;;;;;;;1.85;0.90;;;;;;;;;;4996418;28;80987;-47
2024/02/07 11:32:35;;;;;;;0.00;0.00;;;;;;;;;;4992973;28;80486;-45
2024/02/07 11:35:01;;;;;;;0.10;0.10;;;;;;;;;;4998349;28;80932;-51
2024/02/07 11:37:31;;;;;;;0.30;0.30;;;;;;;;;;4995315;28;81044;-42
2024/02/07 11:40:03;;;;;;;0.57;0.57;;;;;;;;;;4992119;28;81160;-44
2024/02/07 11:42:34;;;;;;;2.10;0.10;;;;;;;;;;4995979;28;81045;-45
2024/02/07 11:45:00;;;;;;;0.70;0.40;;;;;;;;;;4995748;28;80998;-46
2024/02/07 11:47:26;;;;;;;0.17;0.17;;;;;;;;;;4999173;28;81366;-44
2024/02/07 11:49:55;;;;;;;0.20;0.20;;;;;;;;;;4991191;28;80886;-44
2024/02/07 11:52:24;;;;;;;0.77;0.13;;;;;;;;;;4993082;28;80677;-41
2024/02/07 11:54:49;;;;;;;0.00;0.00;;;;;;;;;;4985724;28;80853;-40
2024/02/07 11:57:15;;;;;;;0.20;0.20;;;;;;;;;;4999706;28;80488;-40
2024/02/07 11:59:40;;;;;;;0.30;0.27;;;;;;;;;;4995117;28;81254;-41
2024/02/07 12:02:05;;;;;;;0.13;0.13;;;;;;;;;;4996782;28;81073;-40
2024/02/07 12:04:40;;;;;;;1.40;0.30;;;;;;;;;;4995503;28;81757;-40
2024/02/07 12:07:05;;;;;;;0.63;0.40;;;;;;;;;;5005607;28;81117;-40
2024/02/07 12:09:32;;;;;;;0.17;0.17;;;;;;;;;;4994478;28;80512;-40
2024/02/07 12:11:58;;;;;;;0.10;0.10;;;;;;;;;;4998737;28;80820;-40
2024/02/07 12:14:23;;;;;;;0.40;0.40;;;;;;;;;;4994872;28;80642;-40
2024/02/07 12:16:50;;;;;;;0.20;0.20;;;;;;;;;;5000149;28;80751;-40
2024/02/07 12:19:16;;;;;;;0.50;0.20;;;;;;;;;;4999721;28;81190;-40
2024/02/07 12:21:41;;;;;;;0.37;0.37;;;;;;;;;;4989328;28;82993;-48
2024/02/07 12:24:07;;;;;;;0.20;0.20;;;;;;;;;;4996160;28;80941;-44
2024/02/07 12:26:33;;;;;;;0.00;0.00;;;;;;;;;;4991959;28;81198;-46
2024/02/07 12:28:59;;;;;;;0.37;0.37;;;;;;;;;;5002944;28;81648;-43
2024/02/07 12:31:27;;;;;;;0.10;0.10;;;;;;;;;;4988812;28;84042;-48
2024/02/07 12:33:52;;;;;;;0.15;0.15;;;;;;;;;;4999660;28;80780;-44
2024/02/07 12:36:18;;;;;;;0.10;0.10;;;;;;;;;;4992091;28;80950;-46
2024/02/07 12:38:43;;;;;;;0.17;0.17;;;;;;;;;;4993469;28;81054;-45
2024/02/07 12:41:08;;;;;;;0.00;0.00;;;;;;;;;;4993370;28;81036;-45
2024/02/07 12:43:33;;;;;;;0.40;0.30;;;;;;;;;;4997102;28;80453;-45
2024/02/07 12:46:00;;;;;;;0.40;0.20;;;;;;;;;;4994081;28;81022;-46
2024/02/07 12:48:26;;;;;;;0.00;0.00;;;;;;;;;;4992519;28;81590;-48
2024/02/07 12:50:54;;;;;;;0.00;0.00;;;;;;;;;;4994696;28;82296;-40
2024/02/07 12:53:20;;;;;;;0.00;0.00;;;;;;;;;;4993743;28;81599;-43
2024/02/07 12:55:48;;;;;;;0.00;0.00;;;;;;;;;;4995019;28;80912;-44
2024/02/07 12:58:14;;;;;;;0.40;0.20;;;;;;;;;;4990313;28;81220;-45
2024/02/07 13:00:39;;;;;;;0.10;0.10;;;;;;;;;;4995425;28;81824;-46
2024/02/07 13:03:05;;;;;;;0.00;0.00;;;;;;;;;;4989836;28;83243;-44
2024/02/07 13:05:31;;;;;;;0.00;0.00;;;;;;;;;;4996894;28;81117;-46
2024/02/07 13:07:56;;;;;;;0.30;0.10;;;;;;;;;;4991862;28;81291;-49
2024/02/07 13:10:21;;;;;;;0.10;0.10;;;;;;;;;;4986379;28;81342;-44
2024/02/07 13:12:47;;;;;;;0.20;0.20;;;;;;;;;;4999125;28;81295;-45
2024/02/07 13:15:19;;;;;;;0.00;0.00;;;;;;;;;;4994476;28;81278;-44
2024/02/07 13:17:44;;;;;;;2.60;0.50;;;;;;;;;;4994715;28;81065;-42
2024/02/07 13:20:10;;;;;;;0.10;0.10;;;;;;;;;;4998978;28;81690;-42
2024/02/07 13:22:36;;;;;;;0.20;0.00;;;;;;;;;;4991435;28;80947;-49
2024/02/07 13:25:07;;;;;;;0.00;0.00;;;;;;;;;;4989647;28;81344;-43
2024/02/07 13:27:32;;;;;;;0.10;0.10;;;;;;;;;;4989894;28;81761;-41
2024/02/07 13:29:57;;;;;;;0.47;0.20;;;;;;;;;;4995597;28;81077;-40
2024/02/07 13:32:23;;;;;;;0.90;0.40;;;;;;;;;;4991910;28;82161;-43
2024/02/07 13:34:49;;;;;;;0.77;0.67;;;;;;;;;;4994023;28;81440;-43
2024/02/07 13:37:14;;;;;;;0.30;0.30;;;;;;;;;;4993923;28;80828;-41
2024/02/07 13:39:39;;;;;;;0.50;0.40;;;;;;;;;;4992106;28;81112;-41
2024/02/07 13:42:04;;;;;;;0.03;0.03;;;;;;;;;;4995388;28;82754;-44
2024/02/07 13:44:29;;;;;;;0.30;0.30;;;;;;;;;;4993334;28;81179;-47
2024/02/07 13:46:55;;;;;;;0.13;0.13;;;;;;;;;;4992516;28;82689;-45
2024/02/07 13:49:22;;;;;;;1.50;0.20;;;;;;;;;;4991676;28;83170;-40
2024/02/07 13:51:47;;;;;;;0.10;0.10;;;;;;;;;;4989808;28;83550;-45
2024/02/07 13:54:12;;;;;;;0.23;0.23;;;;;;;;;;4998152;28;83587;-48
2024/02/07 13:56:38;;;;;;;0.10;0.10;;;;;;;;;;4989496;28;82415;-46
2024/02/07 13:59:03;;;;;;;0.10;0.10;;;;;;;;;;4993103;28;82154;-54
2024/02/07 14:01:28;;;;;;;0.60;0.50;;;;;;;;;;4987264;28;82738;-52
2024/02/07 14:03:53;;;;;;;0.83;0.50;;;;;;;;;;4995098;28;82234;-53
2024/02/07 14:06:18;;;;;;;1.33;0.37;;;;;;;;;;4987146;28;82529;-44
2024/02/07 14:08:44;;;;;;;0.23;0.23;;;;;;;;;;4993657;28;81474;-53
2024/02/07 14:11:09;;;;;;;0.10;0.10;;;;;;;;;;4990839;28;82192;-41
2024/02/07 14:13:34;;;;;;;0.30;0.30;;;;;;;;;;4996636;28;82440;-40
2024/02/07 14:15:59;;;;;;;0.30;0.30;;;;;;;;;;4991614;28;83490;-42
2024/02/07 14:18:25;;;;;;;1.10;0.50;;;;;;;;;;4995474;28;83228;-47
2024/02/07 14:20:50;;;;;;;0.40;0.40;;;;;;;;;;4993611;28;82396;-48
2024/02/07 14:23:16;;;;;;;0.30;0.30;;;;;;;;;;4993700;28;82430;-45
2024/02/07 14:25:41;;;;;;;1.10;0.40;;;;;;;;;;4994315;28;82942;-43
2024/02/07 14:28:07;;;;;;;0.40;0.30;;;;;;;;;;4995873;28;81902;-46
2024/02/07 14:30:32;;;;;;;2.10;0.53;;;;;;;;;;4992152;28;82059;-45
2024/02/07 14:32:57;;;;;;;2.70;0.50;;;;;;;;;;4997851;28;81478;-48
2024/02/07 14:35:22;;;;;;;0.60;0.40;;;;;;;;;;4995714;28;82311;-47
2024/02/07 14:37:48;;;;;;;1.60;0.70;;;;;;;;;;4999576;28;82067;-54
2024/02/07 14:40:14;;;;;;;0.40;0.40;;;;;;;;;;4999092;28;84427;-47
2024/02/07 14:42:39;;;;;;;0.30;0.30;;;;;;;;;;4996433;28;82160;-47
2024/02/07 14:45:05;;;;;;;1.80;0.33;;;;;;;;;;4999732;28;82284;-43
2024/02/07 14:47:30;;;;;;;1.83;0.70;;;;;;;;;;4991815;28;82708;-44
2024/02/07 14:49:56;;;;;;;0.75;0.65;;;;;;;;;;4996969;28;82322;-46
2024/02/07 14:52:21;;;;;;;0.63;0.50;;;;;;;;;;4990707;28;82388;-49
2024/02/07 14:54:46;;;;;;;1.17;0.60;;;;;;;;;;4996335;28;82964;-50
2024/02/07 14:57:11;;;;;;;25.20;2.00;;;;;;;;;;4987744;28;81204;-50
2024/02/07 14:59:37;;;;;;;0.40;0.40;;;;;;;;;;4996305;28;84675;-46
2024/02/07 15:02:02;;;;;;;1.63;0.53;;;;;;;;;;4992918;28;82676;-47
2024/02/07 15:04:28;;;;;;;1.30;0.50;;;;;;;;;;4997063;28;82880;-44
2024/02/07 15:06:54;;;;;;;1.00;0.70;;;;;;;;;;4990826;28;82742;-49
2024/02/07 15:09:19;;;;;;;0.35;0.30;;;;;;;;;;4993394;28;82476;-44
2024/02/07 15:11:45;;;;;;;0.50;0.50;;;;;;;;;;4993941;28;84223;-48
2024/02/07 15:14:10;;;;;;;2.60;0.40;;;;;;;;;;4993419;28;82423;-49
2024/02/07 15:16:36;;;;;;;0.33;0.33;;;;;;;;;;4996467;28;82172;-51
2024/02/07 15:19:02;;;;;;;0.25;0.25;;;;;;;;;;4994363;28;82531;-43
2024/02/07 15:21:27;;;;;;;0.37;0.37;;;;;;;;;;5000650;28;81732;-49
2024/02/07 15:23:53;;;;;;;0.10;0.10;;;;;;;;;;4994471;28;82627;-49
2024/02/07 15:26:18;;;;;;;0.35;0.35;;;;;;;;;;4997048;28;83532;-49
2024/02/07 15:28:43;;;;;;;0.20;0.20;;;;;;;;;;4995194;28;83324;-48
2024/02/07 15:31:08;;;;;;;0.67;0.67;;;;;;;;;;4998452;28;83211;-48
2024/02/07 15:33:34;;;;;;;0.50;0.50;;;;;;;;;;4989396;28;82081;-52
2024/02/07 15:36:03;;;;;;;1.30;0.60;;;;;;;;;;4992010;28;84603;-44
2024/02/07 15:38:28;;;;;;;3.10;1.60;;;;;;;;;;4995863;28;83078;-42
2024/02/07 15:40:53;;;;;;;2.63;0.70;;;;;;;;;;4999869;28;83538;-49
2024/02/07 15:43:18;;;;;;;1.27;0.47;;;;;;;;;;4993306;28;82122;-44
2024/02/07 15:45:44;;;;;;;0.60;0.60;;;;;;;;;;4997915;28;82869;-41
2024/02/07 15:48:10;;;;;;;0.55;0.40;;;;;;;;;;4992589;28;82344;-39
2024/02/07 15:50:35;;;;;;;15.80;1.80;;;;;;;;;;4996101;28;83389;-42
2024/02/07 15:53:00;;;;;;;1.70;0.60;;;;;;;;;;4994804;28;82939;-43
2024/02/07 15:55:26;;;;;;;0.30;0.20;;;;;;;;;;4993014;28;81948;-42
2024/02/07 15:57:51;;;;;;;3.20;0.50;;;;;;;;;;4998189;28;82510;-41
2024/02/07 16:00:17;;;;;;;0.30;0.30;;;;;;;;;;4991884;28;82676;-41
2024/02/07 16:02:44;;;;;;;1.38;0.38;;;;;;;;;;4993562;28;82664;-42
2024/02/07 16:05:09;;;;;;;1.30;0.50;;;;;;;;;;4994398;28;83118;-41
2024/02/07 16:07:35;;;;;;;14.40;0.90;;;;;;;;;;4979988;28;82357;-40
2024/02/07 16:10:00;;;;;;;0.80;0.70;;;;;;;;;;4989953;28;81341;-40
2024/02/07 16:12:25;;;;;;;0.27;0.27;;;;;;;;;;4990180;28;82723;-39
2024/02/07 16:14:50;;;;;;;0.40;0.40;;;;;;;;;;4989730;28;82642;-41
2024/02/07 16:17:15;;;;;;;0.60;0.10;;;;;;;;;;4992992;28;82772;-41
2024/02/07 16:19:41;;;;;;;1.60;0.50;;;;;;;;;;4993099;28;82529;-41
2024/02/07 16:22:06;;;;;;;0.20;0.20;;;;;;;;;;4992277;28;82877;-41
2024/02/07 16:24:31;;;;;;;2.60;0.67;;;;;;;;;;4997269;28;84377;-41
2024/02/07 16:26:56;;;;;;;0.30;0.30;;;;;;;;;;4992043;28;81952;-41
2024/02/07 16:29:23;;;;;;;0.40;0.30;;;;;;;;;;4991411;28;82730;-40
2024/02/07 16:31:48;;;;;;;1.10;0.30;;;;;;;;;;4990692;28;83941;-41
2024/02/07 16:34:13;;;;;;;0.20;0.20;;;;;;;;;;4993506;28;81330;-41
2024/02/07 16:36:39;;;;;;;3.70;0.57;;;;;;;;;;4992532;28;82128;-41
2024/02/07 16:39:04;;;;;;;2.10;0.50;;;;;;;;;;4989931;28;83564;-41
2024/02/07 16:41:30;;;;;;;0.43;0.43;;;;;;;;;;4981659;28;83994;-41
2024/02/07 16:43:58;;;;;;;0.80;0.73;;;;;;;;;;4992825;28;82833;-41
2024/02/07 16:46:24;;;;;;;0.87;0.57;;;;;;;;;;4996029;28;82787;-41
2024/02/07 16:48:49;;;;;;;0.50;0.50;;;;;;;;;;4993451;28;82005;-43
2024/02/07 16:51:14;;;;;;;0.60;0.47;;;;;;;;;;4992310;28;82628;-41
2024/02/07 16:53:40;;;;;;;0.13;0.13;;;;;;;;;;4995224;28;82276;-45
2024/02/07 16:56:06;;;;;;;2.20;0.65;;;;;;;;;;4992696;28;82275;-42
2024/02/07 16:58:31;;;;;;;0.80;0.50;;;;;;;;;;4994109;28;81414;-42
2024/02/07 17:00:56;;;;;;;0.50;0.50;;;;;;;;;;4991489;28;83361;-40
2024/02/07 17:03:22;;;;;;;0.60;0.20;;;;;;;;;;4993216;28;82419;-41
2024/02/07 17:05:47;;;;;;;1.70;0.50;;;;;;;;;;4992235;28;84750;-43
2024/02/07 17:08:12;;;;;;;0.10;0.10;;;;;;;;;;4992963;28;82673;-42
2024/02/07 17:10:37;;;;;;;0.20;0.20;;;;;;;;;;4987269;28;83510;-42
2024/02/07 17:13:03;;;;;;;0.23;0.23;;;;;;;;;;4993069;28;82002;-42
2024/02/07 17:15:28;;;;;;;0.10;0.10;;;;;;;;;;4991099;28;84452;-41
2024/02/07 17:17:53;;;;;;;2.40;0.20;;;;;;;;;;4993400;28;83031;-41
2024/02/07 17:20:19;;;;;;;0.00;0.00;;;;;;;;;;4989446;28;82533;-41
2024/02/07 17:22:44;;;;;;;0.40;0.40;;;;;;;;;;4988672;28;82248;-40
2024/02/07 17:25:10;;;;;;;0.20;0.10;;;;;;;;;;4991233;28;82655;-40
2024/02/07 17:27:35;;;;;;;0.50;0.47;;;;;;;;;;4992685;28;81965;-41
2024/02/07 17:30:01;;;;;;;0.03;0.03;;;;;;;;;;4993921;28;83124;-40
2024/02/07 17:32:26;;;;;;;0.20;0.20;;;;;;;;;;4988622;28;82357;-41
2024/02/07 17:34:51;;;;;;;1.00;0.22;;;;;;;;;;4990378;28;82461;-41
2024/02/07 17:37:17;;;;;;;1.00;0.47;;;;;;;;;;4991284;28;82504;-41
2024/02/07 17:39:42;;;;;;;1.30;0.20;;;;;;;;;;4992419;28;83031;-41
2024/02/07 17:42:07;;;;;;;0.33;0.27;;;;;;;;;;4991040;28;82024;-41
2024/02/07 17:44:32;;;;;;;0.50;0.50;;;;;;;;;;4989111;28;82693;-41
2024/02/07 17:46:58;;;;;;;0.30;0.30;;;;;;;;;;4991810;28;81597;-42
2024/02/07 17:49:23;;;;;;;0.30;0.30;;;;;;;;;;4990957;28;82048;-41
2024/02/07 17:51:48;;;;;;;0.60;0.50;;;;;;;;;;4993485;28;82725;-43
2024/02/07 17:54:13;;;;;;;10.30;0.50;;;;;;;;;;4991434;28;83158;-45
2024/02/07 17:56:39;;;;;;;0.10;0.10;;;;;;;;;;4991713;28;82378;-41
2024/02/07 17:59:04;;;;;;;3.90;0.20;;;;;;;;;;4995196;28;81989;-41
2024/02/07 18:01:29;;;;;;;0.13;0.13;;;;;;;;;;4989864;28;82624;-41
2024/02/07 18:03:54;;;;;;;0.10;0.10;;;;;;;;;;4989737;28;83058;-41
2024/02/07 18:06:19;;;;;;;0.90;0.70;;;;;;;;;;4988277;28;84039;-41
2024/02/07 18:08:45;;;;;;;0.40;0.20;;;;;;;;;;4987473;28;82385;-41
2024/02/07 18:11:19;;;;;;;0.50;0.30;;;;;;;;;;4992957;28;81947;-41
2024/02/07 18:13:44;;;;;;;0.30;0.30;;;;;;;;;;4989248;28;83253;-40
2024/02/07 18:16:14;;;;;;;0.20;0.10;;;;;;;;;;4994009;28;82683;-41
2024/02/07 18:18:40;;;;;;;0.17;0.13;;;;;;;;;;4992109;28;82676;-41
2024/02/07 18:21:05;;;;;;;0.10;0.10;;;;;;;;;;4992419;28;84385;-41
2024/02/07 18:23:30;;;;;;;0.23;0.23;;;;;;;;;;4993573;28;83099;-41
2024/02/07 18:25:55;;;;;;;0.10;0.10;;;;;;;;;;4993997;28;82793;-40
2024/02/07 18:28:20;;;;;;;0.10;0.10;;;;;;;;;;4993013;28;82617;-40
2024/02/07 18:30:47;;;;;;;0.23;0.23;;;;;;;;;;4994233;28;82448;-41
2024/02/07 18:33:12;;;;;;;0.05;0.05;;;;;;;;;;4993867;28;82913;-40
2024/02/07 18:35:37;;;;;;;0.00;0.00;;;;;;;;;;4992619;28;83273;-41
2024/02/07 18:38:02;;;;;;;0.10;0.00;;;;;;;;;;4990502;28;85334;-40
2024/02/07 18:40:28;;;;;;;0.30;0.20;;;;;;;;;;4992523;28;82515;-41
2024/02/07 18:42:53;;;;;;;0.00;0.00;;;;;;;;;;4987826;28;82988;-40
2024/02/07 18:45:18;;;;;;;0.00;0.00;;;;;;;;;;4988516;28;83272;-41
2024/02/07 18:47:43;;;;;;;0.27;0.27;;;;;;;;;;4992134;28;81841;-41
2024/02/07 18:50:09;;;;;;;0.03;0.03;;;;;;;;;;4991355;28;83231;-41
2024/02/07 18:52:38;;;;;;;0.75;0.08;;;;;;;;;;4994459;28;82328;-41
2024/02/07 18:55:03;;;;;;;0.00;0.00;;;;;;;;;;4996675;28;81810;-41
2024/02/07 18:57:29;;;;;;;0.00;0.00;;;;;;;;;;4992528;28;83078;-41
2024/02/07 18:59:55;;;;;;;0.00;0.00;;;;;;;;;;4994802;28;82321;-41
2024/02/07 19:02:20;;;;;;;0.20;0.10;;;;;;;;;;4991907;28;83021;-40
2024/02/07 19:04:45;;;;;;;0.20;0.20;;;;;;;;;;4994884;28;82020;-41
2024/02/07 19:07:10;;;;;;;0.00;0.00;;;;;;;;;;4990887;28;84313;-41
2024/02/07 19:09:36;;;;;;;0.10;0.10;;;;;;;;;;4993688;28;82886;-41
2024/02/07 19:12:01;;;;;;;0.10;0.07;;;;;;;;;;4989510;28;82814;-41
2024/02/07 19:14:26;;;;;;;0.00;0.00;;;;;;;;;;5000964;28;83618;-42
2024/02/07 19:16:53;;;;;;;0.00;0.00;;;;;;;;;;4998957;28;82606;-43
2024/02/07 19:19:20;;;;;;;0.05;0.00;;;;;;;;;;4995437;28;82445;-41
2024/02/07 19:21:46;;;;;;;0.20;0.00;;;;;;;;;;5001352;28;83464;-42
2024/02/07 19:24:19;;;;;;;0.40;0.10;;;;;;;;;;5000111;28;81591;-42
2024/02/07 19:26:44;;;;;;;0.00;0.00;;;;;;;;;;4994472;28;82689;-41
2024/02/07 19:29:09;;;;;;;0.10;0.00;;;;;;;;;;5000481;28;83308;-41
2024/02/07 19:31:34;;;;;;;0.03;0.03;;;;;;;;;;5000129;28;82843;-41
2024/02/07 19:34:00;;;;;;;0.20;0.20;;;;;;;;;;4994438;28;84412;-41
2024/02/07 19:36:25;;;;;;;0.10;0.10;;;;;;;;;;4995195;28;82440;-41
2024/02/07 19:38:50;;;;;;;0.00;0.00;;;;;;;;;;4999211;28;82883;-42
2024/02/07 19:41:16;;;;;;;0.10;0.07;;;;;;;;;;4999065;28;82472;-41
2024/02/07 19:43:41;;;;;;;0.10;0.10;;;;;;;;;;4995720;28;82035;-42
2024/02/07 19:46:06;;;;;;;0.30;0.30;;;;;;;;;;5000233;28;82153;-41
2024/02/07 19:48:32;;;;;;;0.70;0.70;;;;;;;;;;4994038;28;82532;-41
2024/02/07 19:50:57;;;;;;;0.07;0.07;;;;;;;;;;4992977;28;82183;-41
2024/02/07 19:53:22;;;;;;;0.00;0.00;;;;;;;;;;5000824;28;83540;-42
2024/02/07 19:55:47;;;;;;;0.10;0.10;;;;;;;;;;4993932;28;84924;-42
2024/02/07 19:58:14;;;;;;;0.10;0.10;;;;;;;;;;4997640;28;81994;-42
2024/02/07 20:00:39;;;;;;;0.30;0.20;;;;;;;;;;4990364;28;83889;-44
2024/02/07 20:03:04;;;;;;;0.30;0.30;;;;;;;;;;4997113;28;82438;-42
2024/02/07 20:05:30;;;;;;;0.20;0.20;;;;;;;;;;4987844;28;83173;-41
2024/02/07 20:07:55;;;;;;;0.10;0.10;;;;;;;;;;4992681;28;82556;-41
2024/02/07 20:10:20;;;;;;;0.07;0.07;;;;;;;;;;4983258;28;83251;-42
2024/02/07 20:12:46;;;;;;;0.20;0.20;;;;;;;;;;4988147;28;81649;-41
2024/02/07 20:15:12;;;;;;;0.00;0.00;;;;;;;;;;4989493;28;82394;-40
2024/02/07 20:17:37;;;;;;;0.10;0.10;;;;;;;;;;4990705;28;82410;-41
2024/02/07 20:20:03;;;;;;;0.10;0.00;;;;;;;;;;4989958;28;83142;-42
2024/02/07 20:22:28;;;;;;;0.30;0.20;;;;;;;;;;4989233;28;84928;-41
2024/02/07 20:24:53;;;;;;;0.00;0.00;;;;;;;;;;4991751;28;83384;-40
2024/02/07 20:27:19;;;;;;;0.10;0.10;;;;;;;;;;4991626;28;82733;-41
2024/02/07 20:29:44;;;;;;;0.17;0.17;;;;;;;;;;4996986;28;81938;-41
2024/02/07 20:32:09;;;;;;;0.00;0.00;;;;;;;;;;4992689;28;81972;-42
2024/02/07 20:34:37;;;;;;;0.00;0.00;;;;;;;;;;4990884;28;82612;-41
2024/02/07 20:37:02;;;;;;;0.10;0.10;;;;;;;;;;4992989;28;81942;-42
2024/02/07 20:39:27;;;;;;;0.20;0.20;;;;;;;;;;4993167;28;82178;-42
2024/02/07 20:41:53;;;;;;;0.20;0.20;;;;;;;;;;4994554;28;83497;-41
2024/02/07 20:44:21;;;;;;;0.00;0.00;;;;;;;;;;4990894;28;83004;-41
2024/02/07 20:46:46;;;;;;;0.00;0.00;;;;;;;;;;4988698;28;82607;-41
2024/02/07 20:49:12;;;;;;;2.10;1.00;;;;;;;;;;4992421;28;81792;-41
2024/02/07 20:51:37;;;;;;;0.00;0.00;;;;;;;;;;4991027;28;82510;-41
2024/02/07 20:54:02;;;;;;;0.30;0.20;;;;;;;;;;4991802;28;83679;-41
2024/02/07 20:56:27;;;;;;;0.50;0.20;;;;;;;;;;4992762;28;82422;-42
2024/02/07 20:58:53;;;;;;;0.80;0.17;;;;;;;;;;4988925;28;82329;-43
2024/02/07 21:01:18;;;;;;;0.00;0.00;;;;;;;;;;4988359;28;82560;-42
2024/02/07 21:03:43;;;;;;;0.10;0.10;;;;;;;;;;4993803;28;82081;-42
2024/02/07 21:06:09;;;;;;;0.00;0.00;;;;;;;;;;4992180;28;83506;-41
2024/02/07 21:08:34;;;;;;;0.10;0.10;;;;;;;;;;4992652;28;83321;-43
2024/02/07 21:10:59;;;;;;;0.27;0.00;;;;;;;;;;4988660;28;84432;-41
2024/02/07 21:13:24;;;;;;;0.10;0.10;;;;;;;;;;4990490;28;83696;-41
2024/02/07 21:15:50;;;;;;;0.20;0.20;;;;;;;;;;4991178;28;83646;-41
2024/02/07 21:18:15;;;;;;;0.10;0.10;;;;;;;;;;4990967;28;83192;-41
2024/02/07 21:20:40;;;;;;;0.00;0.00;;;;;;;;;;4991250;28;82593;-41
2024/02/07 21:23:06;;;;;;;0.00;0.00;;;;;;;;;;4989692;28;83019;-41
2024/02/07 21:25:31;;;;;;;0.00;0.00;;;;;;;;;;4994898;28;81943;-40
2024/02/07 21:27:56;;;;;;;0.00;0.00;;;;;;;;;;4992409;28;82085;-42
2024/02/07 21:30:21;;;;;;;0.00;0.00;;;;;;;;;;4989443;28;82014;-41
2024/02/07 21:32:48;;;;;;;1.40;0.10;;;;;;;;;;4991318;28;82930;-42
2024/02/07 21:35:13;;;;;;;0.00;0.00;;;;;;;;;;4993132;28;81932;-42
2024/02/07 21:37:40;;;;;;;0.10;0.10;;;;;;;;;;4992427;28;84391;-41
2024/02/07 21:40:05;;;;;;;0.00;0.00;;;;;;;;;;4990816;28;83180;-41
2024/02/07 21:42:31;;;;;;;0.10;0.10;;;;;;;;;;4990609;28;82442;-41
2024/02/07 21:44:56;;;;;;;0.00;0.00;;;;;;;;;;4991667;28;82401;-42
2024/02/07 21:47:23;;;;;;;0.00;0.00;;;;;;;;;;4995099;28;82045;-42
2024/02/07 21:49:48;;;;;;;0.00;0.00;;;;;;;;;;4990076;28;83094;-41
2024/02/07 21:52:13;;;;;;;0.00;0.00;;;;;;;;;;4990208;28;82364;-44
2024/02/07 21:54:39;;;;;;;0.00;0.00;;;;;;;;;;4991846;28;82076;-41
2024/02/07 21:57:04;;;;;;;0.10;0.10;;;;;;;;;;4989443;28;83015;-42
2024/02/07 21:59:29;;;;;;;0.07;0.07;;;;;;;;;;4990020;28;82564;-42
2024/02/07 22:01:54;;;;;;;0.00;0.00;;;;;;;;;;4990287;28;82329;-41
2024/02/07 22:04:19;;;;;;;0.20;0.00;;;;;;;;;;4992730;28;83641;-41
2024/02/07 22:06:48;;;;;;;0.00;0.00;;;;;;;;;;4992956;28;82722;-41
2024/02/07 22:09:13;;;;;;;0.00;0.00;;;;;;;;;;4997937;28;82486;-41
2024/02/07 22:11:39;;;;;;;0.00;0.00;;;;;;;;;;4984505;28;83361;-41
2024/02/07 22:14:04;;;;;;;0.30;0.30;;;;;;;;;;4999413;28;83289;-42
2024/02/07 22:16:29;;;;;;;0.00;0.00;;;;;;;;;;4984879;28;83755;-41
2024/02/07 22:18:55;;;;;;;0.10;0.10;;;;;;;;;;4992550;28;83445;-40
2024/02/07 22:21:20;;;;;;;0.20;0.20;;;;;;;;;;4988064;28;82944;-42
2024/02/07 22:23:45;;;;;;;0.10;0.10;;;;;;;;;;4992165;28;83177;-41
2024/02/07 22:26:10;;;;;;;0.30;0.30;;;;;;;;;;4995032;28;83084;-41
2024/02/07 22:28:36;;;;;;;0.00;0.00;;;;;;;;;;4995997;28;84714;-41
2024/02/07 22:31:01;;;;;;;0.10;0.10;;;;;;;;;;4990307;28;82445;-40
2024/02/07 22:33:26;;;;;;;0.17;0.17;;;;;;;;;;4991440;28;84391;-40
2024/02/07 22:35:51;;;;;;;0.00;0.00;;;;;;;;;;4990798;28;82628;-41
2024/02/07 22:38:17;;;;;;;0.10;0.10;;;;;;;;;;4997019;28;83311;-41
2024/02/07 22:40:42;;;;;;;0.20;0.20;;;;;;;;;;4991942;28;82797;-41
2024/02/07 22:43:07;;;;;;;0.30;0.30;;;;;;;;;;4994949;28;81921;-41
2024/02/07 22:45:33;;;;;;;0.07;0.07;;;;;;;;;;4994781;28;84351;-41
2024/02/07 22:47:58;;;;;;;0.00;0.00;;;;;;;;;;4990244;28;82542;-40
2024/02/07 22:50:23;;;;;;;0.00;0.00;;;;;;;;;;5003659;28;82187;-40
2024/02/07 22:52:48;;;;;;;0.10;0.10;;;;;;;;;;4998065;28;83679;-40
2024/02/07 22:55:14;;;;;;;0.00;0.00;;;;;;;;;;4998279;28;82340;-40
2024/02/07 22:57:39;;;;;;;0.10;0.10;;;;;;;;;;4996425;28;84090;-41
2024/02/07 23:00:49;;;;;;;0.00;0.00;;;;;;;;;;4999824;28;82411;-40
2024/02/07 23:02:54;;;;;;;0.40;0.20;;;;;;;;;;4996208;28;83163;-40
2024/02/07 23:05:21;;;;;;;0.20;0.00;;;;;;;;;;4997943;28;83647;-41
2024/02/07 23:07:47;;;;;;;0.00;0.00;;;;;;;;;;4995548;28;83013;-40
2024/02/07 23:10:12;;;;;;;0.00;0.00;;;;;;;;;;4993671;28;83502;-41
2024/02/07 23:12:37;;;;;;;0.00;0.00;;;;;;;;;;5001258;28;83313;-39
2024/02/07 23:15:02;;;;;;;0.00;0.00;;;;;;;;;;5000326;28;82154;-39
2024/02/07 23:17:30;;;;;;;0.00;0.00;;;;;;;;;;4998856;28;83134;-39
2024/02/07 23:19:55;;;;;;;0.00;0.00;;;;;;;;;;4999348;28;82641;-40
2024/02/07 23:22:22;;;;;;;0.00;0.00;;;;;;;;;;5000932;28;82382;-40
2024/02/07 23:24:47;;;;;;;0.00;0.00;;;;;;;;;;4998528;28;81759;-39
2024/02/07 23:27:12;;;;;;;0.10;0.00;;;;;;;;;;4998481;28;81457;-39
2024/02/07 23:29:38;;;;;;;0.00;0.00;;;;;;;;;;4994722;28;82663;-40
2024/02/07 23:32:03;;;;;;;0.10;0.10;;;;;;;;;;4995405;28;82571;-40
2024/02/07 23:34:28;;;;;;;0.20;0.20;;;;;;;;;;5000888;28;83586;-41
2024/02/07 23:36:53;;;;;;;0.10;0.10;;;;;;;;;;4996564;28;81958;-39
2024/02/07 23:39:19;;;;;;;0.00;0.00;;;;;;;;;;4994560;28;83801;-40
2024/02/07 23:41:44;;;;;;;0.00;0.00;;;;;;;;;;4996669;28;82334;-40
2024/02/07 23:44:09;;;;;;;0.60;0.30;;;;;;;;;;4998924;28;83644;-40
2024/02/07 23:46:34;;;;;;;0.10;0.10;;;;;;;;;;4995199;28;81874;-39
2024/02/07 23:49:01;;;;;;;0.10;0.10;;;;;;;;;;4990572;28;82532;-40
2024/02/07 23:51:26;;;;;;;0.10;0.10;;;;;;;;;;4995567;28;81598;-40
2024/02/07 23:53:52;;;;;;;0.00;0.00;;;;;;;;;;5000315;28;82217;-40
2024/02/07 23:56:17;;;;;;;0.00;0.00;;;;;;;;;;4997994;28;82573;-40
2024/02/07 23:58:42;;;;;;;0.00;0.00;;;;;;;;;;4997555;28;83114;-40
